Time;durP1;ratioP1;P1;durP2;ratioP2;P2;SDS_P1;SDS_P2;PMS_P1;PMS_P2;Temp;Humidity;BMP_temperature;BMP_pressure;BME280_temperature;BME280_humidity;BME280_pressure;Samples;Min_cycle;Max_cycle;Signal;HPM_P1;HPM_P2
2023/03/09 00:00:00;;;;;;;26.55;23.85;;;3.80;99.90;;;;;;2034074;29;20043;-71
2023/03/09 00:01:01;;;;;;;26.38;23.67;;;3.80;99.90;;;;;;2035330;29;20023;-71
2023/03/09 00:02:02;;;;;;;26.02;23.33;;;3.80;99.90;;;;;;2036094;29;20020;-71
2023/03/09 00:03:02;;;;;;;28.20;25.30;;;3.80;99.90;;;;;;2034977;29;20029;-71
2023/03/09 00:04:03;;;;;;;27.73;24.83;;;3.80;99.90;;;;;;2033857;29;20020;-71
2023/03/09 00:05:04;;;;;;;26.23;23.50;;;3.80;99.90;;;;;;2033811;29;20032;-71
2023/03/09 00:06:05;;;;;;;25.92;23.30;;;3.80;99.90;;;;;;2035284;29;20047;-71
2023/03/09 00:07:06;;;;;;;27.40;24.60;;;3.80;99.90;;;;;;2036545;29;20039;-71
2023/03/09 00:08:06;;;;;;;26.67;23.98;;;3.80;99.90;;;;;;2027811;29;20028;-72
2023/03/09 00:09:07;;;;;;;27.42;24.55;;;3.80;99.90;;;;;;2028771;29;20573;-71
2023/03/09 00:10:11;;;;;;;27.27;24.48;;;3.80;99.90;;;;;;2037212;29;20038;-71
2023/03/09 00:11:12;;;;;;;26.88;24.08;;;3.80;99.90;;;;;;2044560;28;20027;-71
2023/03/09 00:12:13;;;;;;;27.05;24.17;;;3.80;99.90;;;;;;2044983;28;20122;-72
2023/03/09 00:13:13;;;;;;;26.20;23.50;;;3.80;99.90;;;;;;2037069;29;20028;-71
2023/03/09 00:14:16;;;;;;;27.13;24.33;;;3.80;99.90;;;;;;2037999;29;20034;-71
2023/03/09 00:15:16;;;;;;;27.98;24.98;;;3.80;99.90;;;;;;2039242;29;20376;-72
2023/03/09 00:16:23;;;;;;;28.95;25.95;;;3.80;99.90;;;;;;2036793;29;20054;-71
2023/03/09 00:17:23;;;;;;;29.90;26.77;;;3.90;99.90;;;;;;2036403;29;20027;-71
2023/03/09 00:18:24;;;;;;;28.77;25.75;;;3.90;99.90;;;;;;2037955;29;20024;-71
2023/03/09 00:19:27;;;;;;;29.35;26.25;;;3.90;99.90;;;;;;2038295;29;20023;-72
2023/03/09 00:20:28;;;;;;;29.35;26.20;;;3.90;99.90;;;;;;2037794;29;20127;-72
2023/03/09 00:21:36;;;;;;;30.27;27.08;;;3.90;99.90;;;;;;2037638;29;20028;-71
2023/03/09 00:22:36;;;;;;;29.88;26.70;;;3.90;99.90;;;;;;2038126;29;20500;-71
2023/03/09 00:23:37;;;;;;;29.70;26.50;;;3.80;99.90;;;;;;2036698;29;20428;-71
2023/03/09 00:24:45;;;;;;;29.20;26.20;;;3.90;99.90;;;;;;2028809;29;20024;-71
2023/03/09 00:25:46;;;;;;;30.33;27.02;;;3.90;99.90;;;;;;2029770;29;20136;-71
2023/03/09 00:26:51;;;;;;;31.48;27.92;;;3.90;99.90;;;;;;2029229;29;20080;-71
2023/03/09 00:27:52;;;;;;;31.02;27.83;;;3.90;99.90;;;;;;2029094;29;20507;-71
2023/03/09 00:28:53;;;;;;;31.08;27.52;;;3.90;99.90;;;;;;2043023;28;20090;-72
2023/03/09 00:29:54;;;;;;;31.23;27.88;;;3.90;99.90;;;;;;2045375;28;20130;-71
2023/03/09 00:31:07;;;;;;;32.33;28.83;;;3.90;99.90;;;;;;2037627;29;20032;-71
2023/03/09 00:32:08;;;;;;;32.40;29.05;;;3.90;99.90;;;;;;2036889;29;20103;-71
2023/03/09 00:33:08;;;;;;;32.78;29.05;;;3.90;99.90;;;;;;2036839;29;20039;-71
2023/03/09 00:34:10;;;;;;;32.83;29.33;;;3.90;99.90;;;;;;2038225;29;20028;-71
2023/03/09 00:35:11;;;;;;;32.70;29.20;;;3.90;99.90;;;;;;2037761;29;20023;-72
2023/03/09 00:36:16;;;;;;;32.92;29.33;;;3.90;99.90;;;;;;2037246;29;20016;-71
2023/03/09 00:37:17;;;;;;;33.08;29.48;;;3.90;99.90;;;;;;2037222;29;20020;-72
2023/03/09 00:38:17;;;;;;;34.67;30.88;;;3.90;99.90;;;;;;2037179;29;20052;-71
2023/03/09 00:39:18;;;;;;;38.55;31.73;;;3.90;99.90;;;;;;2038116;29;20020;-71
2023/03/09 00:40:19;;;;;;;35.47;31.05;;;3.90;99.90;;;;;;2036455;29;20028;-71
2023/03/09 00:41:21;;;;;;;33.88;30.13;;;3.90;99.90;;;;;;2031411;29;20063;-71
2023/03/09 00:42:21;;;;;;;33.75;30.10;;;4.00;99.90;;;;;;2029682;29;20617;-71
2023/03/09 00:43:22;;;;;;;35.40;30.92;;;3.90;99.90;;;;;;2036751;29;20036;-71
2023/03/09 00:44:23;;;;;;;34.22;30.30;;;4.00;99.90;;;;;;2036347;29;20040;-71
2023/03/09 00:45:23;;;;;;;32.85;29.30;;;3.90;99.90;;;;;;2036707;29;20799;-71
2023/03/09 00:46:24;;;;;;;35.03;31.23;;;4.00;99.90;;;;;;2037422;29;20023;-72
2023/03/09 00:47:25;;;;;;;35.15;31.30;;;3.90;99.90;;;;;;2037546;29;20028;-71
2023/03/09 00:48:25;;;;;;;33.38;29.55;;;3.90;99.90;;;;;;2036591;29;20027;-71
2023/03/09 00:49:26;;;;;;;35.58;31.77;;;3.90;99.90;;;;;;2036911;29;20047;-71
2023/03/09 00:50:26;;;;;;;33.85;30.27;;;3.90;99.90;;;;;;2036445;29;20031;-71
2023/03/09 00:51:27;;;;;;;36.05;31.45;;;3.90;99.90;;;;;;2037056;29;20055;-71
2023/03/09 00:52:28;;;;;;;37.20;32.35;;;3.90;99.90;;;;;;2039295;29;20103;-71
2023/03/09 00:53:28;;;;;;;33.75;30.08;;;3.90;99.90;;;;;;2037793;29;20039;-71
2023/03/09 00:54:29;;;;;;;34.92;31.17;;;3.90;99.90;;;;;;2039013;29;20019;-71
2023/03/09 00:55:29;;;;;;;33.03;29.42;;;3.90;99.90;;;;;;2036361;29;20077;-71
2023/03/09 00:56:30;;;;;;;35.45;31.65;;;3.90;99.90;;;;;;2038921;29;20029;-71
2023/03/09 00:57:31;;;;;;;30.75;27.50;;;3.90;99.90;;;;;;2039327;29;20019;-71
2023/03/09 00:58:32;;;;;;;34.70;31.00;;;4.00;99.90;;;;;;2038357;29;20036;-71
2023/03/09 00:59:32;;;;;;;32.35;28.83;;;3.90;99.90;;;;;;2037162;29;20558;-71
2023/03/09 01:00:33;;;;;;;34.83;31.13;;;4.00;99.90;;;;;;2027494;29;20024;-71
2023/03/09 01:01:34;;;;;;;34.80;31.05;;;4.00;99.90;;;;;;2028545;29;20044;-71
2023/03/09 01:02:34;;;;;;;37.70;32.20;;;4.00;99.90;;;;;;2036978;29;20182;-72
2023/03/09 01:03:36;;;;;;;38.65;34.38;;;4.00;99.90;;;;;;2037030;29;20023;-71
2023/03/09 01:04:36;;;;;;;37.70;32.55;;;4.00;99.90;;;;;;2035526;29;20057;-71
2023/03/09 01:05:37;;;;;;;40.42;34.55;;;4.00;99.90;;;;;;2037227;29;20028;-72
2023/03/09 01:06:38;;;;;;;43.97;36.55;;;4.00;99.90;;;;;;2043633;28;20051;-71
2023/03/09 01:07:40;;;;;;;44.00;37.03;;;4.00;99.90;;;;;;2043657;28;20032;-71
2023/03/09 01:08:41;;;;;;;44.00;36.33;;;4.00;99.90;;;;;;2036752;29;20431;-71
2023/03/09 01:09:43;;;;;;;46.83;38.70;;;4.00;99.90;;;;;;2038106;29;20016;-71
2023/03/09 01:10:43;;;;;;;44.08;36.95;;;4.00;99.90;;;;;;2036582;29;20431;-71
2023/03/09 01:11:44;;;;;;;47.38;37.85;;;4.00;99.90;;;;;;2037056;29;20091;-71
2023/03/09 01:12:45;;;;;;;46.45;38.38;;;4.00;99.90;;;;;;2036427;29;20047;-71
2023/03/09 01:13:45;;;;;;;49.50;39.45;;;4.00;99.90;;;;;;2028259;29;20089;-71
2023/03/09 01:14:48;;;;;;;48.22;39.95;;;4.00;99.90;;;;;;2028385;29;20040;-71
2023/03/09 01:15:48;;;;;;;47.22;37.70;;;4.00;99.90;;;;;;2036004;29;20559;-71
2023/03/09 01:16:49;;;;;;;52.10;40.70;;;4.00;99.90;;;;;;2037456;29;20048;-71
2023/03/09 01:17:50;;;;;;;51.08;41.78;;;4.00;99.90;;;;;;2038438;29;20020;-72
2023/03/09 01:18:50;;;;;;;48.78;38.72;;;4.00;99.90;;;;;;2036110;29;20028;-71
2023/03/09 01:19:51;;;;;;;46.05;39.00;;;4.00;99.90;;;;;;2035955;29;20471;-71
2023/03/09 01:20:51;;;;;;;42.38;35.58;;;4.10;99.90;;;;;;2037169;29;20024;-72
2023/03/09 01:21:52;;;;;;;45.38;36.78;;;4.10;99.90;;;;;;2037446;29;20036;-71
2023/03/09 01:22:52;;;;;;;46.95;38.15;;;4.10;99.90;;;;;;2036891;29;20628;-71
2023/03/09 01:23:53;;;;;;;42.95;35.92;;;4.10;99.90;;;;;;2028745;29;20612;-71
2023/03/09 01:24:53;;;;;;;41.67;36.13;;;4.00;99.90;;;;;;2028814;29;20063;-72
2023/03/09 01:25:55;;;;;;;40.25;35.67;;;4.10;99.90;;;;;;2035968;29;20434;-71
2023/03/09 01:26:55;;;;;;;41.15;35.90;;;4.00;99.90;;;;;;2035438;29;20043;-71
2023/03/09 01:27:56;;;;;;;40.20;35.08;;;4.00;99.90;;;;;;2037461;29;20034;-71
2023/03/09 01:28:56;;;;;;;38.72;34.38;;;4.00;99.90;;;;;;2034864;29;20576;-72
2023/03/09 01:29:57;;;;;;;39.60;33.55;;;4.00;99.90;;;;;;2036270;29;20039;-72
2023/03/09 01:30:58;;;;;;;36.67;32.67;;;4.00;99.90;;;;;;2028199;29;20016;-71
2023/03/09 01:31:58;;;;;;;36.45;32.50;;;4.00;99.90;;;;;;2028883;29;20108;-71
2023/03/09 01:32:59;;;;;;;37.33;33.33;;;4.00;99.90;;;;;;2038163;29;20732;-71
2023/03/09 01:33:59;;;;;;;37.42;33.03;;;4.00;99.90;;;;;;2036033;29;20027;-71
2023/03/09 01:35:00;;;;;;;35.15;31.40;;;4.00;99.90;;;;;;2036226;29;20440;-71
2023/03/09 01:36:04;;;;;;;37.03;33.10;;;4.00;99.90;;;;;;2037064;29;20762;-71
2023/03/09 01:37:04;;;;;;;36.65;32.85;;;4.00;99.90;;;;;;2036945;29;20091;-72
2023/03/09 01:38:07;;;;;;;34.83;31.10;;;4.00;99.90;;;;;;2038156;29;20102;-71
2023/03/09 01:39:11;;;;;;;33.33;29.75;;;4.00;99.90;;;;;;2036867;29;20666;-71
2023/03/09 01:40:23;;;;;;;34.47;30.88;;;3.90;99.90;;;;;;2037073;29;20550;-71
2023/03/09 01:41:24;;;;;;;35.15;31.52;;;4.00;99.90;;;;;;2038351;29;20052;-71
2023/03/09 01:42:25;;;;;;;34.53;30.83;;;4.00;99.90;;;;;;2036956;29;20562;-71
2023/03/09 01:43:28;;;;;;;34.90;31.23;;;3.90;99.90;;;;;;2036727;29;20570;-71
2023/03/09 01:44:29;;;;;;;33.85;30.25;;;3.90;99.90;;;;;;2035784;29;20025;-71
2023/03/09 01:45:29;;;;;;;33.35;29.85;;;3.90;99.90;;;;;;2029337;29;20024;-71
2023/03/09 01:46:55;;;;;;;34.08;30.38;;;4.00;99.90;;;;;;2029931;29;20187;-71
2023/03/09 01:47:59;;;;;;;33.58;30.08;;;3.90;99.90;;;;;;2037381;29;20039;-71
2023/03/09 01:49:25;;;;;;;32.03;28.70;;;3.90;99.90;;;;;;2037111;29;20053;-71
2023/03/09 01:50:31;;;;;;;32.80;29.38;;;3.90;99.90;;;;;;2035008;29;20066;-71
2023/03/09 01:51:55;;;;;;;32.88;29.40;;;3.90;99.90;;;;;;2038235;29;20051;-71
2023/03/09 01:53:00;;;;;;;31.85;28.45;;;3.90;99.90;;;;;;2037144;29;20027;-71
2023/03/09 01:54:04;;;;;;;33.38;28.90;;;3.90;99.90;;;;;;2029177;29;20035;-71
2023/03/09 01:55:09;;;;;;;32.55;29.23;;;3.90;99.90;;;;;;2028476;29;20123;-72
2023/03/09 01:56:10;;;;;;;30.15;26.95;;;3.90;99.90;;;;;;2037700;29;20028;-71
2023/03/09 01:57:19;;;;;;;33.33;29.73;;;3.90;99.90;;;;;;2036110;29;20051;-71
2023/03/09 01:58:25;;;;;;;32.40;28.90;;;3.90;99.90;;;;;;2037079;29;20020;-71
2023/03/09 01:59:28;;;;;;;32.33;28.92;;;3.80;99.90;;;;;;2036314;29;20062;-71
2023/03/09 02:00:30;;;;;;;32.80;29.40;;;3.90;99.90;;;;;;2028386;29;20025;-71
2023/03/09 02:01:31;;;;;;;32.65;29.20;;;3.80;99.90;;;;;;2034630;29;20050;-71
2023/03/09 02:02:35;;;;;;;30.35;27.25;;;3.90;99.90;;;;;;2044516;28;20026;-71
2023/03/09 02:03:40;;;;;;;32.58;29.05;;;3.90;99.90;;;;;;2037966;29;20035;-71
2023/03/09 02:04:50;;;;;;;32.55;29.02;;;3.90;99.90;;;;;;2035473;29;20461;-71
2023/03/09 02:05:56;;;;;;;32.47;28.98;;;3.90;99.90;;;;;;2036153;29;20028;-71
2023/03/09 02:06:58;;;;;;;31.98;28.65;;;3.90;99.90;;;;;;2035729;29;20229;-71
2023/03/09 02:08:00;;;;;;;31.67;28.40;;;3.90;99.90;;;;;;2036118;29;20028;-71
2023/03/09 02:09:12;;;;;;;31.65;28.35;;;3.90;99.90;;;;;;2044750;28;20034;-71
2023/03/09 02:10:36;;;;;;;32.33;28.85;;;3.90;99.90;;;;;;2035716;29;20094;-71
2023/03/09 02:11:38;;;;;;;32.90;29.30;;;3.90;99.90;;;;;;2032207;29;20024;-71
2023/03/09 02:12:40;;;;;;;33.83;29.63;;;3.90;99.90;;;;;;2028163;29;20039;-72
2023/03/09 02:13:46;;;;;;;33.25;29.85;;;3.90;99.90;;;;;;2027887;29;20036;-71
2023/03/09 02:14:47;;;;;;;31.85;28.35;;;3.90;99.90;;;;;;2034663;29;20035;-72
2023/03/09 02:15:49;;;;;;;33.50;29.90;;;3.90;99.90;;;;;;2037383;29;20065;-71
2023/03/09 02:16:49;;;;;;;34.00;30.35;;;3.90;99.90;;;;;;2036861;29;20089;-71
2023/03/09 02:17:51;;;;;;;33.33;29.65;;;3.90;99.90;;;;;;2035809;29;20028;-72
2023/03/09 02:18:51;;;;;;;35.30;31.10;;;3.90;99.90;;;;;;2037345;29;20110;-72
2023/03/09 02:20:00;;;;;;;34.22;30.08;;;3.90;99.90;;;;;;2027459;29;20028;-72
2023/03/09 02:21:25;;;;;;;34.88;30.45;;;3.90;99.90;;;;;;2022123;29;20048;-72
2023/03/09 02:22:25;;;;;;;34.58;30.83;;;3.90;99.90;;;;;;2030722;29;20032;-71
2023/03/09 02:23:52;;;;;;;34.10;30.38;;;3.90;99.90;;;;;;2036310;29;20502;-71
2023/03/09 02:25:18;;;;;;;32.88;29.15;;;3.80;99.90;;;;;;2027162;29;20047;-72
2023/03/09 02:26:33;;;;;;;33.78;29.42;;;3.80;99.90;;;;;;2031551;29;20399;-71
2023/03/09 02:27:34;;;;;;;33.00;29.45;;;3.80;99.90;;;;;;2036679;29;20043;-71
2023/03/09 02:28:35;;;;;;;33.60;29.98;;;3.80;99.90;;;;;;2036086;29;20032;-72
2023/03/09 02:29:35;;;;;;;35.13;31.33;;;3.80;99.90;;;;;;2035914;29;20032;-72
2023/03/09 02:30:41;;;;;;;34.40;30.70;;;3.80;99.90;;;;;;2036100;29;20438;-71
2023/03/09 02:31:41;;;;;;;35.13;31.15;;;3.80;99.90;;;;;;2036740;29;20401;-71
2023/03/09 02:32:42;;;;;;;34.05;29.80;;;3.80;99.90;;;;;;2037586;29;20113;-71
2023/03/09 02:33:42;;;;;;;35.63;31.17;;;3.80;99.90;;;;;;2029905;29;20038;-71
2023/03/09 02:34:43;;;;;;;34.28;30.52;;;3.90;99.90;;;;;;2030932;29;20035;-71
2023/03/09 02:35:44;;;;;;;36.38;31.05;;;3.90;99.90;;;;;;2036086;29;20170;-71
2023/03/09 02:36:44;;;;;;;36.15;32.00;;;3.90;99.90;;;;;;2035707;29;20055;-71
2023/03/09 02:37:45;;;;;;;37.22;33.03;;;3.90;99.90;;;;;;2036430;29;20103;-71
2023/03/09 02:38:45;;;;;;;38.35;33.00;;;3.90;99.90;;;;;;2035644;29;20035;-71
2023/03/09 02:39:49;;;;;;;36.88;31.95;;;3.90;99.90;;;;;;2036559;29;20047;-71
2023/03/09 02:40:52;;;;;;;36.28;32.28;;;3.90;99.90;;;;;;2034281;29;20024;-71
2023/03/09 02:41:56;;;;;;;36.38;31.92;;;4.00;99.90;;;;;;2036860;29;20108;-71
2023/03/09 02:42:58;;;;;;;36.33;32.33;;;4.00;99.90;;;;;;2037904;29;20022;-71
2023/03/09 02:43:59;;;;;;;36.28;32.17;;;4.00;99.90;;;;;;2037568;29;20619;-71
2023/03/09 02:45:00;;;;;;;37.25;32.42;;;3.90;99.90;;;;;;2035792;29;20462;-71
2023/03/09 02:46:00;;;;;;;35.35;30.88;;;4.00;99.90;;;;;;2036347;29;20028;-71
2023/03/09 02:47:06;;;;;;;35.28;31.38;;;4.00;99.90;;;;;;2037290;29;20028;-71
2023/03/09 02:48:06;;;;;;;36.30;31.52;;;4.00;99.90;;;;;;2036503;29;20115;-71
2023/03/09 02:49:07;;;;;;;36.47;32.00;;;3.90;99.90;;;;;;2036552;29;20492;-71
2023/03/09 02:50:09;;;;;;;40.10;33.03;;;3.90;99.90;;;;;;2036739;29;20074;-72
2023/03/09 02:51:09;;;;;;;36.00;32.13;;;4.00;99.90;;;;;;2036268;29;20083;-71
2023/03/09 02:52:10;;;;;;;36.25;32.38;;;3.90;99.90;;;;;;2035773;29;20086;-71
2023/03/09 02:53:11;;;;;;;38.55;33.20;;;3.90;99.90;;;;;;2036492;29;20023;-72
2023/03/09 02:54:11;;;;;;;38.03;33.83;;;3.90;99.90;;;;;;2036378;29;20039;-71
2023/03/09 02:55:12;;;;;;;37.47;33.22;;;3.90;99.90;;;;;;2028267;29;20191;-71
2023/03/09 02:56:13;;;;;;;39.25;34.88;;;3.90;99.90;;;;;;2028468;29;20025;-71
2023/03/09 02:57:13;;;;;;;37.20;32.67;;;3.90;99.90;;;;;;2036095;29;20024;-71
2023/03/09 02:58:14;;;;;;;36.35;32.13;;;3.90;99.90;;;;;;2034820;29;20035;-72
2023/03/09 02:59:14;;;;;;;37.47;33.42;;;3.90;99.90;;;;;;2035504;29;20075;-72
2023/03/09 03:00:16;;;;;;;39.45;33.80;;;4.00;99.90;;;;;;2033073;29;20111;-72
2023/03/09 03:01:17;;;;;;;36.95;32.67;;;4.00;99.90;;;;;;2035362;29;21058;-72
2023/03/09 03:02:17;;;;;;;38.05;33.42;;;4.00;99.90;;;;;;2036180;29;20039;-71
2023/03/09 03:03:20;;;;;;;36.45;31.90;;;4.00;99.90;;;;;;2036536;29;20046;-71
2023/03/09 03:04:20;;;;;;;37.58;33.05;;;4.00;99.90;;;;;;2036175;29;20562;-71
2023/03/09 03:05:21;;;;;;;37.22;32.97;;;4.00;99.90;;;;;;2027374;29;20509;-71
2023/03/09 03:06:22;;;;;;;38.30;33.60;;;4.00;99.90;;;;;;2026784;29;20024;-71
2023/03/09 03:07:22;;;;;;;37.15;33.05;;;4.00;99.90;;;;;;2036466;29;20027;-71
2023/03/09 03:08:23;;;;;;;36.67;32.78;;;4.00;99.90;;;;;;2035577;29;20023;-73
2023/03/09 03:09:23;;;;;;;35.67;31.88;;;4.00;99.90;;;;;;2036080;29;20383;-71
2023/03/09 03:10:24;;;;;;;36.83;32.50;;;4.00;99.90;;;;;;2027057;29;20028;-71
2023/03/09 03:11:24;;;;;;;39.58;34.80;;;4.10;99.90;;;;;;2027611;29;20041;-71
2023/03/09 03:12:25;;;;;;;37.50;33.25;;;4.10;99.90;;;;;;2037614;29;20175;-71
2023/03/09 03:13:26;;;;;;;39.50;33.90;;;4.10;99.90;;;;;;2034311;29;20031;-72
2023/03/09 03:16:23;;;;;;;36.25;32.13;;;4.10;99.90;;;;;;2033305;29;20534;-71
2023/03/09 03:17:24;;;;;;;37.92;33.25;;;4.00;99.90;;;;;;2036145;29;20447;-72
2023/03/09 03:18:25;;;;;;;39.70;33.53;;;4.00;99.90;;;;;;2036400;29;20127;-71
2023/03/09 03:19:26;;;;;;;38.28;34.17;;;4.00;99.90;;;;;;2037151;29;20028;-71
2023/03/09 03:20:27;;;;;;;37.72;32.92;;;4.00;99.90;;;;;;2036233;29;20518;-72
2023/03/09 03:21:27;;;;;;;37.58;33.45;;;4.10;99.90;;;;;;2036545;29;20836;-71
2023/03/09 03:22:28;;;;;;;37.78;33.10;;;4.10;99.90;;;;;;2036671;29;20056;-71
2023/03/09 03:23:28;;;;;;;36.45;32.50;;;4.10;99.90;;;;;;2037584;29;20035;-71
2023/03/09 03:24:29;;;;;;;40.05;33.95;;;4.10;99.90;;;;;;2034635;29;20038;-71
2023/03/09 03:25:30;;;;;;;37.00;32.97;;;4.10;99.90;;;;;;2036003;29;20028;-71
2023/03/09 03:26:30;;;;;;;39.50;33.92;;;4.10;99.90;;;;;;2036486;29;20032;-71
2023/03/09 03:27:32;;;;;;;39.00;33.70;;;4.10;99.90;;;;;;2026935;29;20039;-71
2023/03/09 03:28:32;;;;;;;38.45;33.45;;;4.10;99.90;;;;;;2028976;29;20032;-71
2023/03/09 03:29:33;;;;;;;37.38;32.97;;;4.10;99.90;;;;;;2037507;29;20055;-71
2023/03/09 03:30:34;;;;;;;37.85;32.95;;;4.10;99.90;;;;;;2036850;29;20030;-71
2023/03/09 03:31:34;;;;;;;35.42;31.58;;;4.10;99.90;;;;;;2036932;29;20702;-72
2023/03/09 03:32:35;;;;;;;40.13;33.45;;;4.10;99.90;;;;;;2036968;29;20024;-71
2023/03/09 03:33:36;;;;;;;37.03;33.00;;;4.20;99.90;;;;;;2027849;29;20028;-72
2023/03/09 03:34:36;;;;;;;38.58;33.78;;;4.20;99.90;;;;;;2026274;29;20024;-71
2023/03/09 03:35:37;;;;;;;39.83;34.70;;;4.20;99.90;;;;;;2036674;29;20026;-72
2023/03/09 03:36:37;;;;;;;41.55;35.33;;;4.20;99.90;;;;;;2043757;29;20027;-72
2023/03/09 03:37:38;;;;;;;42.22;35.88;;;4.10;99.90;;;;;;2043238;28;20028;-71
2023/03/09 03:38:40;;;;;;;39.88;34.28;;;4.10;99.90;;;;;;2036526;29;20023;-71
2023/03/09 03:39:41;;;;;;;41.25;35.38;;;4.20;99.90;;;;;;2034929;29;20078;-72
2023/03/09 03:40:41;;;;;;;38.58;33.22;;;4.10;99.90;;;;;;2034226;29;20083;-71
2023/03/09 03:41:42;;;;;;;39.22;34.20;;;4.20;99.90;;;;;;2034691;29;20107;-71
2023/03/09 03:42:42;;;;;;;39.20;34.00;;;4.20;99.90;;;;;;2035566;29;20455;-71
2023/03/09 03:43:43;;;;;;;40.60;33.83;;;4.20;99.90;;;;;;2034999;29;20028;-72
2023/03/09 03:44:43;;;;;;;39.95;33.85;;;4.20;99.90;;;;;;2036273;29;20032;-71
2023/03/09 03:45:44;;;;;;;40.05;35.30;;;4.20;99.90;;;;;;2036624;29;20036;-72
2023/03/09 03:46:44;;;;;;;41.70;36.40;;;4.20;99.90;;;;;;2035825;29;20027;-71
2023/03/09 03:47:45;;;;;;;40.58;35.13;;;4.20;99.90;;;;;;2025504;29;20032;-71
2023/03/09 03:48:45;;;;;;;41.85;36.55;;;4.20;99.90;;;;;;2028396;29;20142;-72
2023/03/09 03:49:46;;;;;;;42.95;35.83;;;4.20;99.90;;;;;;2034918;29;20024;-72
2023/03/09 03:50:46;;;;;;;44.10;37.67;;;4.20;99.90;;;;;;2034866;29;20028;-71
2023/03/09 03:51:47;;;;;;;44.35;36.65;;;4.20;99.90;;;;;;2035167;29;20063;-71
2023/03/09 03:52:49;;;;;;;41.25;35.88;;;4.20;99.90;;;;;;2037176;29;20098;-71
2023/03/09 03:53:49;;;;;;;44.38;37.40;;;4.10;99.90;;;;;;2035916;29;20032;-71
2023/03/09 03:54:50;;;;;;;42.72;35.42;;;4.20;99.90;;;;;;2035996;29;20118;-72
2023/03/09 03:55:51;;;;;;;44.13;36.70;;;4.10;99.90;;;;;;2036432;29;20044;-72
2023/03/09 03:56:52;;;;;;;43.33;38.50;;;4.20;99.90;;;;;;2035409;29;20540;-71
2023/03/09 03:57:52;;;;;;;44.92;36.97;;;4.10;99.90;;;;;;2034941;29;20036;-71
2023/03/09 03:58:53;;;;;;;44.45;38.00;;;4.20;99.90;;;;;;2043020;28;20486;-72
2023/03/09 03:59:53;;;;;;;43.15;36.25;;;4.20;99.90;;;;;;2033986;29;20059;-71
2023/03/09 04:00:54;;;;;;;46.67;38.95;;;4.20;99.90;;;;;;2028516;29;20067;-71
2023/03/09 04:01:54;;;;;;;45.05;37.65;;;4.20;99.90;;;;;;2033886;29;20475;-71
2023/03/09 04:02:55;;;;;;;44.45;37.50;;;4.20;99.90;;;;;;2034571;29;20024;-71
2023/03/09 04:03:56;;;;;;;44.05;37.05;;;4.20;99.90;;;;;;2035877;29;20028;-72
2023/03/09 04:04:56;;;;;;;42.33;35.40;;;4.20;99.90;;;;;;2035355;29;20094;-71
2023/03/09 04:05:57;;;;;;;42.75;35.63;;;4.20;99.90;;;;;;2034952;29;20047;-71
2023/03/09 04:06:57;;;;;;;44.88;36.70;;;4.20;99.90;;;;;;2034284;29;20066;-71
2023/03/09 04:07:58;;;;;;;46.83;37.95;;;4.20;99.90;;;;;;2042955;28;20031;-72
2023/03/09 04:08:59;;;;;;;42.38;35.92;;;4.20;99.90;;;;;;2035390;29;20028;-71
2023/03/09 04:09:59;;;;;;;44.45;36.88;;;4.20;99.90;;;;;;2028019;29;20059;-71
2023/03/09 04:11:05;;;;;;;44.08;36.53;;;4.20;99.90;;;;;;2034686;29;20626;-71
2023/03/09 04:12:06;;;;;;;44.53;36.67;;;4.20;99.90;;;;;;2035299;29;20035;-71
2023/03/09 04:13:06;;;;;;;46.90;37.85;;;4.20;99.90;;;;;;2035817;29;20032;-71
2023/03/09 04:14:07;;;;;;;45.75;38.75;;;4.20;99.90;;;;;;2035636;29;20035;-71
2023/03/09 04:15:08;;;;;;;44.55;36.95;;;4.20;99.90;;;;;;2036338;29;20027;-71
2023/03/09 04:16:08;;;;;;;47.50;39.03;;;4.10;99.90;;;;;;2026628;29;20508;-71
2023/03/09 04:17:09;;;;;;;43.92;36.95;;;4.10;99.90;;;;;;2018915;29;20460;-72
2023/03/09 04:18:10;;;;;;;45.10;37.58;;;4.20;99.90;;;;;;2028615;29;20099;-71
2023/03/09 04:19:10;;;;;;;47.53;38.03;;;4.10;99.90;;;;;;2035551;29;20107;-71
2023/03/09 04:20:11;;;;;;;47.72;38.60;;;4.20;99.90;;;;;;2035078;29;20027;-71
2023/03/09 04:21:12;;;;;;;49.35;38.83;;;4.10;99.90;;;;;;2036877;29;20047;-71
2023/03/09 04:22:12;;;;;;;47.40;37.53;;;4.10;99.90;;;;;;2036621;29;20036;-71
2023/03/09 04:23:13;;;;;;;47.90;38.83;;;4.10;99.90;;;;;;2027130;29;20028;-71
2023/03/09 04:24:14;;;;;;;47.13;38.30;;;4.10;99.90;;;;;;2026612;29;20496;-71
2023/03/09 04:25:15;;;;;;;47.60;38.15;;;4.10;99.90;;;;;;2035288;29;20024;-71
2023/03/09 04:26:15;;;;;;;48.75;38.47;;;4.10;99.90;;;;;;2036100;29;20404;-72
2023/03/09 04:27:16;;;;;;;51.00;40.25;;;4.10;99.90;;;;;;2034662;29;20111;-72
2023/03/09 04:28:16;;;;;;;47.90;38.72;;;4.10;99.90;;;;;;2036579;29;20110;-71
2023/03/09 04:29:17;;;;;;;45.42;37.20;;;4.20;99.90;;;;;;2036031;29;20038;-71
2023/03/09 04:30:20;;;;;;;46.58;38.45;;;4.10;99.90;;;;;;2035166;29;20031;-71
2023/03/09 04:31:20;;;;;;;46.22;37.92;;;4.10;99.90;;;;;;2035073;29;20035;-72
2023/03/09 04:32:21;;;;;;;50.13;39.55;;;4.10;99.90;;;;;;2036326;29;20034;-71
2023/03/09 04:33:22;;;;;;;46.63;38.03;;;4.10;99.90;;;;;;2036238;29;20558;-71
2023/03/09 04:34:23;;;;;;;49.78;38.75;;;4.20;99.90;;;;;;2035666;29;20437;-71
2023/03/09 04:35:23;;;;;;;50.28;38.35;;;4.10;99.90;;;;;;2034507;29;20024;-72
2023/03/09 04:36:24;;;;;;;50.22;39.45;;;4.10;99.90;;;;;;2035325;29;20019;-71
2023/03/09 04:37:24;;;;;;;49.35;40.28;;;4.20;99.90;;;;;;2027848;29;20028;-71
2023/03/09 04:38:25;;;;;;;50.88;39.30;;;4.10;99.90;;;;;;2028186;29;20127;-71
2023/03/09 04:39:25;;;;;;;47.33;38.60;;;4.20;99.90;;;;;;2036449;29;20032;-71
2023/03/09 04:40:26;;;;;;;47.38;38.45;;;4.20;99.90;;;;;;2033254;29;20028;-71
2023/03/09 04:41:26;;;;;;;49.08;38.70;;;4.10;99.90;;;;;;2034237;29;20023;-71
2023/03/09 04:42:27;;;;;;;50.20;38.92;;;4.20;99.90;;;;;;2035524;29;20106;-71
2023/03/09 04:43:28;;;;;;;49.25;38.88;;;4.20;99.90;;;;;;2036292;29;20027;-71
2023/03/09 04:44:29;;;;;;;48.25;39.47;;;4.20;99.90;;;;;;2036789;29;20611;-72
2023/03/09 04:45:30;;;;;;;47.80;38.08;;;4.20;99.90;;;;;;2038138;29;20036;-71
2023/03/09 04:46:30;;;;;;;49.97;38.70;;;4.20;99.90;;;;;;2035779;29;20027;-71
2023/03/09 04:47:31;;;;;;;47.65;39.50;;;4.20;99.90;;;;;;2035521;29;20024;-71
2023/03/09 04:48:32;;;;;;;49.65;38.67;;;4.30;99.90;;;;;;2034570;29;20098;-71
2023/03/09 04:49:32;;;;;;;50.00;39.13;;;4.20;99.90;;;;;;2036340;29;20111;-71
2023/03/09 04:50:33;;;;;;;51.28;40.92;;;4.20;99.90;;;;;;2036455;29;20403;-71
2023/03/09 04:51:34;;;;;;;48.95;39.53;;;4.20;99.90;;;;;;2036481;29;20030;-71
2023/03/09 04:52:34;;;;;;;47.60;37.40;;;4.20;99.90;;;;;;2036256;29;20028;-72
2023/03/09 04:53:35;;;;;;;49.83;38.45;;;4.20;99.90;;;;;;2036428;29;20032;-72
2023/03/09 04:54:36;;;;;;;51.22;40.80;;;4.30;99.90;;;;;;2036272;29;20027;-71
2023/03/09 04:55:37;;;;;;;54.47;40.28;;;4.20;99.90;;;;;;2028804;29;20062;-71
2023/03/09 04:56:38;;;;;;;47.38;38.90;;;4.30;99.90;;;;;;2028775;29;20075;-71
2023/03/09 04:57:38;;;;;;;51.97;40.35;;;4.30;99.90;;;;;;2037766;29;20471;-71
2023/03/09 04:58:39;;;;;;;52.33;39.25;;;4.20;99.90;;;;;;2036415;29;20492;-71
2023/03/09 04:59:39;;;;;;;49.60;39.53;;;4.30;99.90;;;;;;2037508;29;20016;-71
2023/03/09 05:00:40;;;;;;;44.95;36.67;;;4.30;99.90;;;;;;2037761;29;20103;-71
2023/03/09 05:01:40;;;;;;;44.97;36.55;;;4.20;99.90;;;;;;2044285;28;20026;-71
2023/03/09 05:02:41;;;;;;;49.45;38.90;;;4.30;99.90;;;;;;2044939;29;20027;-71
2023/03/09 05:03:42;;;;;;;49.17;38.47;;;4.30;99.90;;;;;;2030418;29;20027;-72
2023/03/09 05:04:43;;;;;;;53.15;39.58;;;4.30;99.90;;;;;;2036168;29;20026;-71
2023/03/09 05:05:43;;;;;;;51.30;40.10;;;4.30;99.90;;;;;;2044055;28;20489;-72
2023/03/09 05:06:44;;;;;;;48.92;39.50;;;4.30;99.90;;;;;;2037395;29;20475;-71
2023/03/09 05:07:45;;;;;;;49.47;39.20;;;4.30;99.90;;;;;;2028994;29;20064;-71
2023/03/09 05:08:45;;;;;;;53.53;40.70;;;4.30;99.90;;;;;;2027896;29;20032;-71
2023/03/09 05:09:46;;;;;;;51.67;40.30;;;4.30;99.90;;;;;;2042093;28;20126;-71
2023/03/09 05:10:46;;;;;;;52.00;40.22;;;4.30;99.90;;;;;;2044481;28;20455;-71
2023/03/09 05:11:51;;;;;;;50.22;38.60;;;4.30;99.90;;;;;;2038552;29;20028;-71
2023/03/09 05:12:52;;;;;;;53.65;41.88;;;4.30;99.90;;;;;;2037336;29;20035;-71
2023/03/09 05:13:52;;;;;;;49.60;38.83;;;4.30;99.90;;;;;;2028733;29;20032;-71
2023/03/09 05:14:53;;;;;;;47.90;37.15;;;4.30;99.90;;;;;;2028179;29;20858;-72
2023/03/09 05:15:53;;;;;;;49.78;39.58;;;4.30;99.90;;;;;;2035975;29;20479;-71
2023/03/09 05:16:54;;;;;;;54.22;41.17;;;4.30;99.90;;;;;;2037411;29;20035;-71
2023/03/09 05:17:55;;;;;;;55.72;40.45;;;4.30;99.90;;;;;;2036225;29;20024;-71
2023/03/09 05:18:55;;;;;;;51.75;40.67;;;4.30;99.90;;;;;;2036705;29;20119;-71